Bellevue, WA (98004)

4:12 PM PDT on July 24, 2016 (GMT -0700)
Bellevue - Downtown Park | | Change Station

Elev 100 ft 47.61 °N, 122.20 °W | Updated 14 seconds ago

Clear
Clear
80.2 °F
Feels Like 81 °F
N
1.0
Wind Variable Wind from WNW
Gusts 4.0 mph

Today
High -- | Low -- °F
--% Chance of Precip.
Yesterday
High -- | Low -- °F
Precip. -- in
Pressure 30.05 in
Visibility 10.0 miles
Clouds Clear
Heat Index 81 °F
Dew Point 59 °F
Humidity 49%
Rainfall 0.00 in
Snow Depth Not available.
5:37 AM 8:52 PM
Waning Gibbous, 72% visible
METAR KBFI 242253Z 32008KT 10SM CLR 27/11 A3005 RMK AO2 SLP175 T02670111
Pressure 30.05 in
Visibility 10.0 miles
Clouds Clear
Heat Index 81 °F
Dew Point 59 °F
Humidity 49%
Rainfall 0.00 in
Snow Depth Not available.
5:37 AM 8:52 PM
Waning Gibbous, 72% visible
METAR KBFI 242253Z 32008KT 10SM CLR 27/11 A3005 RMK AO2 SLP175 T02670111

10-Day Weather Forecast

Almanac

Astronomy

Jul. 24, 2016 Rise Set
Actual Time
Civil Twilight
Nautical Twilight
Astronomical Twilight
Moon
Length of Visible Light
Length of Day
Tomorrow will be .
, % of the Moon is Illuminated

Today's Extremes

State Highs State Lows

Community

WunderPhotos

Upload Photos

1,927,205 photos uploaded!

WunderBlog® & News

Nearby

Air Quality

  Air Quality AQ Index Pollutant
Not available.

Snow Depth

Station Depth Elevation

Earthquake Activity

City Distance Mag. Time & Date
Minimum magnitude displayed is 2.5.

Coastal Water Temperatures

Place Temperature

Stations

Nearby Weather Stations

Station Location Temp. Windchill Dew Point Humidity Wind Precip. Elev Updated Type
                   

Watches & Warnings

There are currently no watches in effect.